createdAt,value
2023-06-07T00:00:41.940Z,96715.09
2023-06-07T00:03:08.725Z,96718.91
2023-06-07T00:05:35.455Z,96714.03
2023-06-07T00:08:03.175Z,96720.28
2023-06-07T00:10:29.864Z,96724.97
2023-06-07T00:12:58.813Z,96718.94
2023-06-07T00:15:25.502Z,96724.97
2023-06-07T00:17:52.352Z,96725.75
2023-06-07T00:20:19.206Z,96734.25
2023-06-07T00:22:45.864Z,96725.53
2023-06-07T00:25:13.663Z,96733.19
2023-06-07T00:27:40.365Z,96733.72
2023-06-07T00:30:07.836Z,96734.28
2023-06-07T00:32:34.564Z,96734.84
2023-06-07T00:35:01.309Z,96731.03
2023-06-07T00:37:28.138Z,96738.41
2023-06-07T00:39:54.857Z,96741.16
2023-06-07T00:42:21.562Z,96735.97
2023-06-07T00:44:48.198Z,96724.84
2023-06-07T00:47:16.214Z,96732.19
2023-06-07T00:49:44.176Z,96733.53
2023-06-07T00:52:11.922Z,96735.44
2023-06-07T00:54:38.566Z,96730.28
2023-06-07T00:57:05.720Z,96732.19
2023-06-07T00:59:32.371Z,96731.13
2023-06-07T01:01:59.071Z,96728.69
2023-06-07T01:04:25.846Z,96731.97
2023-06-07T01:06:52.590Z,96732.22
2023-06-07T01:09:19.501Z,96736.81
2023-06-07T01:11:48.673Z,96733.03
2023-06-07T01:14:15.392Z,96732.78
2023-06-07T01:16:42.158Z,96736.31
2023-06-07T01:19:08.980Z,96731.16
2023-06-07T01:21:35.682Z,96733.06
2023-06-07T01:24:02.516Z,96727.91
2023-06-07T01:26:29.213Z,96734.72
2023-06-07T01:28:55.876Z,96741.22
2023-06-07T01:31:23.347Z,96737.72
2023-06-07T01:33:50.236Z,96737.16
2023-06-07T01:36:16.885Z,96740.16
2023-06-07T01:38:43.512Z,96733.34
2023-06-07T01:41:10.356Z,96730.09
2023-06-07T01:43:37.053Z,96740.44
2023-06-07T01:46:03.938Z,96742.88
2023-06-07T01:48:30.680Z,96740.13
2023-06-07T01:50:57.406Z,96735.53
2023-06-07T01:53:24.054Z,96731.69
2023-06-07T01:56:00.600Z,96736.59
2023-06-07T01:58:40.954Z,96731.44
2023-06-07T02:01:22.422Z,96731.72
2023-06-07T02:03:53.364Z,96733.88
2023-06-07T02:06:29.985Z,96737.16
2023-06-07T02:08:56.811Z,96733.88
2023-06-07T02:11:23.497Z,96742.84
2023-06-07T02:13:50.199Z,96742.84
2023-06-07T02:16:17.169Z,96736.09
2023-06-07T02:18:43.856Z,96733.38
2023-06-07T02:21:10.987Z,96736.34
2023-06-07T02:23:38.196Z,96730.13
2023-06-07T02:26:04.940Z,96732.25
2023-06-07T02:28:31.635Z,96735.25
2023-06-07T02:30:58.391Z,96732.81
2023-06-07T02:33:25.266Z,96732.84
2023-06-07T02:35:52.094Z,96727.94
2023-06-07T02:38:18.919Z,96738.53
2023-06-07T02:40:45.559Z,96729.56
2023-06-07T02:43:12.189Z,96736.63
2023-06-07T02:45:39.839Z,96739.38
2023-06-07T02:48:06.569Z,96735.28
2023-06-07T02:50:33.345Z,96737.19
2023-06-07T02:53:00.097Z,96740.16
2023-06-07T02:55:26.921Z,96736.63
2023-06-07T02:57:53.642Z,96739.03
2023-06-07T03:00:20.290Z,96737.69
2023-06-07T03:02:47.229Z,96741.22
2023-06-07T03:05:14.023Z,96741.75
2023-06-07T03:07:40.717Z,96732.00
2023-06-07T03:10:07.881Z,96743.69
2023-06-07T03:12:34.531Z,96733.88
2023-06-07T03:15:01.266Z,96731.16
2023-06-07T03:17:28.160Z,96746.13
2023-06-07T03:19:55.000Z,96738.78
2023-06-07T03:22:21.651Z,96737.16
2023-06-07T03:24:48.909Z,96739.88
2023-06-07T03:27:15.692Z,96734.97
2023-06-07T03:29:42.431Z,96748.84
2023-06-07T03:32:09.222Z,96746.41
2023-06-07T03:34:35.871Z,96745.03
2023-06-07T03:37:02.587Z,96745.84
2023-06-07T03:39:29.308Z,96752.94
2023-06-07T03:41:55.939Z,96756.19
2023-06-07T03:44:22.620Z,96755.13
2023-06-07T03:46:49.566Z,96754.81
2023-06-07T03:49:17.034Z,96761.34
2023-06-07T03:51:43.754Z,96759.97
2023-06-07T03:54:10.546Z,96761.34
2023-06-07T03:56:37.558Z,96760.78
2023-06-07T03:59:04.204Z,96755.03
2023-06-07T04:01:30.904Z,96762.66
2023-06-07T04:03:57.816Z,96757.75
2023-06-07T04:06:24.656Z,96762.13
2023-06-07T04:08:51.958Z,96758.63
2023-06-07T04:11:19.595Z,96760.78
2023-06-07T04:13:46.291Z,96755.09
2023-06-07T04:16:13.008Z,96763.25
2023-06-07T04:18:39.695Z,96760.00
2023-06-07T04:21:06.346Z,96760.53
2023-06-07T04:23:33.217Z,96761.09
2023-06-07T04:25:59.884Z,96760.81
2023-06-07T04:28:26.614Z,96761.09
2023-06-07T04:30:53.298Z,96765.44
2023-06-07T04:33:20.030Z,96763.25
2023-06-07T04:35:47.249Z,96765.44
2023-06-07T04:38:15.133Z,96767.09
2023-06-07T04:40:42.054Z,96766.00
2023-06-07T04:43:08.741Z,96769.25
2023-06-07T04:45:38.350Z,96770.88
2023-06-07T04:48:05.441Z,96774.16
2023-06-07T04:50:32.129Z,96779.88
2023-06-07T04:52:58.801Z,96776.88
2023-06-07T04:55:25.456Z,96778.78
2023-06-07T04:57:52.209Z,96778.78
2023-06-07T05:00:19.077Z,96781.22
2023-06-07T05:02:45.929Z,96778.25
2023-06-07T05:05:12.715Z,96783.94
2023-06-07T05:07:41.030Z,96773.06
2023-06-07T05:10:08.274Z,96780.69
2023-06-07T05:12:35.348Z,96785.56
2023-06-07T05:15:01.988Z,96775.81
2023-06-07T05:17:28.948Z,96777.97
2023-06-07T05:19:58.366Z,96774.69
2023-06-07T05:22:25.011Z,96780.66
2023-06-07T05:24:51.657Z,96781.78
2023-06-07T05:27:18.377Z,96777.69
2023-06-07T05:29:45.106Z,96786.38
2023-06-07T05:32:11.880Z,96782.81
2023-06-07T05:34:38.686Z,96779.00
2023-06-07T05:37:06.206Z,96774.34
2023-06-07T05:39:32.906Z,96776.50
2023-06-07T05:41:59.554Z,96779.19
2023-06-07T05:44:26.179Z,96775.91
2023-06-07T05:46:53.001Z,96780.25
2023-06-07T05:49:19.777Z,96778.31
2023-06-07T05:51:46.457Z,96776.13
2023-06-07T05:54:13.316Z,96772.31
2023-06-07T05:56:40.095Z,96780.41
2023-06-07T05:59:06.868Z,96780.72
2023-06-07T06:01:33.503Z,96787.50
2023-06-07T06:04:00.255Z,96786.94
2023-06-07T06:06:26.995Z,96788.81
2023-06-07T06:08:53.748Z,96799.13
2023-06-07T06:11:20.417Z,96789.81
2023-06-07T06:13:47.060Z,96786.81
2023-06-07T06:16:13.741Z,96795.47
2023-06-07T06:18:42.586Z,96793.28
2023-06-07T06:21:09.580Z,96796.25
2023-06-07T06:23:36.723Z,96798.97
2023-06-07T06:26:03.513Z,96800.84
2023-06-07T06:28:30.282Z,96803.56
2023-06-07T06:30:58.216Z,96806.28
2023-06-07T06:33:24.982Z,96805.38
2023-06-07T06:35:51.888Z,96800.72
2023-06-07T06:38:18.658Z,96800.72
2023-06-07T06:40:45.318Z,96794.38
2023-06-07T06:43:12.642Z,96800.38
2023-06-07T06:45:39.313Z,96802.53
2023-06-07T06:48:06.583Z,96793.81
2023-06-07T06:50:34.437Z,96799.75
2023-06-07T06:53:01.406Z,96794.81
2023-06-07T06:55:28.154Z,96803.72
2023-06-07T06:57:55.269Z,96796.91
2023-06-07T07:00:22.145Z,96800.47
2023-06-07T07:02:48.956Z,96804.75
2023-06-07T07:05:15.806Z,96805.75
2023-06-07T07:07:42.665Z,96803.28
2023-06-07T07:10:09.992Z,96805.19
2023-06-07T07:12:37.304Z,96807.91
2023-06-07T07:15:04.276Z,96806.16
2023-06-07T07:17:31.063Z,96809.09
2023-06-07T07:19:57.842Z,96819.22
2023-06-07T07:22:26.843Z,96814.50
2023-06-07T07:24:56.327Z,96812.00
2023-06-07T07:27:23.143Z,96812.72
2023-06-07T07:29:49.824Z,96813.19
2023-06-07T07:32:16.551Z,96819.69
2023-06-07T07:34:43.227Z,96812.84
2023-06-07T07:37:10.139Z,96817.13
2023-06-07T07:39:36.777Z,96822.00
2023-06-07T07:42:03.566Z,96817.63
2023-06-07T07:44:30.259Z,96812.41
2023-06-07T07:46:56.942Z,96812.94
2023-06-07T07:49:23.636Z,96818.66
2023-06-07T07:51:51.238Z,96808.78
2023-06-07T07:54:17.986Z,96811.38
2023-06-07T07:56:44.864Z,96818.19
2023-06-07T07:59:12.520Z,96811.91
2023-06-07T08:01:39.657Z,96810.88
2023-06-07T08:04:06.451Z,96806.56
2023-06-07T08:06:33.205Z,96816.41
2023-06-07T08:08:59.848Z,96818.31
2023-06-07T08:11:26.941Z,96815.34
2023-06-07T08:13:53.605Z,96815.16
2023-06-07T08:16:20.351Z,96816.78
2023-06-07T08:18:49.133Z,96826.53
2023-06-07T08:21:16.218Z,96827.03
2023-06-07T08:23:42.989Z,96820.41
2023-06-07T08:26:09.634Z,96822.47
2023-06-07T08:28:36.871Z,96826.84
2023-06-07T08:31:03.773Z,96827.56
2023-06-07T08:33:31.017Z,96824.84
2023-06-07T08:35:57.683Z,96826.16
2023-06-07T08:38:24.413Z,96833.53
2023-06-07T08:40:54.929Z,96824.06
2023-06-07T08:43:21.653Z,96835.38
2023-06-07T08:45:50.204Z,96831.16
2023-06-07T08:48:17.009Z,96824.72
2023-06-07T08:50:47.197Z,96820.44
2023-06-07T08:53:14.989Z,96820.66
2023-06-07T08:55:45.324Z,96815.66
2023-06-07T08:58:11.990Z,96815.28
2023-06-07T09:00:38.737Z,96814.91
2023-06-07T09:03:06.102Z,96809.38
2023-06-07T09:05:32.828Z,96810.03
2023-06-07T09:07:59.522Z,96805.00
2023-06-07T09:10:26.209Z,96808.03
2023-06-07T09:12:53.295Z,96809.78
2023-06-07T09:15:21.155Z,96803.50
2023-06-07T09:17:51.747Z,96808.34
2023-06-07T09:20:27.865Z,96801.50
2023-06-07T09:22:58.072Z,96808.53
2023-06-07T09:25:25.109Z,96800.88
2023-06-07T09:27:51.928Z,96799.66
2023-06-07T09:30:18.749Z,96796.34
2023-06-07T09:32:45.518Z,96805.78
2023-06-07T09:35:16.366Z,96801.69
2023-06-07T09:37:44.348Z,96801.16
2023-06-07T09:40:11.538Z,96801.31
2023-06-07T09:42:38.359Z,96798.09
2023-06-07T09:45:11.198Z,96800.69
2023-06-07T09:47:38.476Z,96797.94
2023-06-07T09:50:09.617Z,96797.06
2023-06-07T09:52:37.018Z,96794.09
2023-06-07T09:55:04.267Z,96791.28
2023-06-07T09:57:33.285Z,96787.84
2023-06-07T10:00:07.587Z,96788.66
2023-06-07T10:02:34.622Z,96785.28
2023-06-07T10:05:01.726Z,96772.69
2023-06-07T10:07:34.044Z,96771.75
2023-06-07T10:10:00.730Z,96760.00
2023-06-07T10:12:28.504Z,96756.69
2023-06-07T10:14:55.149Z,96759.78
2023-06-07T10:17:26.211Z,96750.97
2023-06-07T10:19:52.971Z,96742.75
2023-06-07T10:22:24.969Z,96750.25
2023-06-07T10:25:00.998Z,96754.41
2023-06-07T10:27:28.199Z,96750.34
2023-06-07T10:30:11.291Z,96742.94
2023-06-07T10:32:39.191Z,96740.50
2023-06-07T10:35:15.289Z,96747.63
2023-06-07T10:37:43.579Z,96741.31
2023-06-07T10:40:10.402Z,96742.69
2023-06-07T10:42:38.926Z,96742.09
2023-06-07T10:45:06.233Z,96744.72
2023-06-07T10:47:32.932Z,96739.59
2023-06-07T10:49:59.695Z,96751.34
2023-06-07T10:52:26.490Z,96743.66
2023-06-07T10:54:53.359Z,96744.88
2023-06-07T10:57:33.318Z,96737.03
2023-06-07T11:00:25.284Z,96741.88
2023-06-07T11:02:52.193Z,96738.47
2023-06-07T11:05:19.081Z,96742.13
2023-06-07T11:07:45.915Z,96733.38
2023-06-07T11:10:18.608Z,96727.56
2023-06-07T11:12:45.181Z,96724.56
2023-06-07T11:15:18.187Z,96718.53
2023-06-07T11:18:00.541Z,96721.84
2023-06-07T11:20:36.423Z,96709.88
2023-06-07T11:23:31.241Z,96709.94
2023-06-07T11:26:08.005Z,96703.63
2023-06-07T11:28:35.714Z,96696.56
2023-06-07T11:31:02.512Z,96691.38
2023-06-07T11:33:30.683Z,96692.69
2023-06-07T11:35:57.498Z,96677.41
2023-06-07T11:38:25.333Z,96674.66
2023-06-07T11:40:52.136Z,96676.69
2023-06-07T11:43:23.780Z,96671.44
2023-06-07T11:45:50.519Z,96670.88
2023-06-07T11:48:17.246Z,96671.69
2023-06-07T11:50:44.099Z,96668.94
2023-06-07T11:53:13.550Z,96677.78
2023-06-07T11:55:40.694Z,96678.13
2023-06-07T11:58:07.587Z,96684.09
2023-06-07T12:00:36.396Z,96670.81
2023-06-07T12:03:04.290Z,96675.94
2023-06-07T12:05:31.295Z,96673.94
2023-06-07T12:08:04.105Z,96667.03
2023-06-07T12:10:30.838Z,96665.00
2023-06-07T12:13:12.359Z,96664.28
2023-06-07T12:15:43.453Z,96663.19
2023-06-07T12:18:18.862Z,96660.31
2023-06-07T12:20:46.251Z,96661.94
2023-06-07T12:23:13.459Z,96660.50
2023-06-07T12:25:40.632Z,96661.19
2023-06-07T12:28:07.500Z,96658.59
2023-06-07T12:30:35.204Z,96654.41
2023-06-07T12:33:02.018Z,96652.84
2023-06-07T12:35:39.215Z,96645.88
2023-06-07T12:38:11.136Z,96641.53
2023-06-07T12:40:38.446Z,96641.50
2023-06-07T12:43:05.246Z,96634.91
2023-06-07T12:45:31.900Z,96628.56
2023-06-07T12:47:58.808Z,96637.81
2023-06-07T12:50:25.586Z,96627.28
2023-06-07T12:52:52.373Z,96623.84
2023-06-07T12:55:19.168Z,96622.91
2023-06-07T12:57:49.883Z,96628.84
2023-06-07T13:00:17.440Z,96626.13
2023-06-07T13:02:44.221Z,96619.47
2023-06-07T13:05:11.579Z,96609.28
2023-06-07T13:07:39.354Z,96608.19
2023-06-07T13:10:07.653Z,96609.28
2023-06-07T13:12:34.848Z,96608.00
2023-06-07T13:15:01.638Z,96605.91
2023-06-07T13:17:28.543Z,96596.03
2023-06-07T13:19:55.289Z,96597.34
2023-06-07T13:22:22.084Z,96599.91
2023-06-07T13:24:48.795Z,96596.50
2023-06-07T13:27:15.528Z,96595.22
2023-06-07T13:29:42.569Z,96591.69
2023-06-07T13:32:09.581Z,96589.22
2023-06-07T13:34:36.291Z,96584.88
2023-06-07T13:37:02.992Z,96584.41
2023-06-07T13:39:29.757Z,96587.44
2023-06-07T13:41:56.512Z,96586.00
2023-06-07T13:44:23.379Z,96578.06
2023-06-07T13:46:50.177Z,96568.50
2023-06-07T13:49:16.964Z,96573.16
2023-06-07T13:51:44.126Z,96577.25
2023-06-07T13:54:10.776Z,96576.09
2023-06-07T13:56:38.749Z,96577.72
2023-06-07T13:59:05.570Z,96581.91
2023-06-07T14:01:32.354Z,96576.00
2023-06-07T14:03:59.263Z,96579.69
2023-06-07T14:06:28.250Z,96573.81
2023-06-07T14:08:55.111Z,96570.78
2023-06-07T14:11:21.938Z,96561.13
2023-06-07T14:13:48.592Z,96570.81
2023-06-07T14:16:16.594Z,96566.97
2023-06-07T14:18:44.483Z,96569.06
2023-06-07T14:21:12.616Z,96567.19
2023-06-07T14:23:39.310Z,96553.56
2023-06-07T14:26:06.024Z,96555.69
2023-06-07T14:28:32.737Z,96558.75
2023-06-07T14:30:59.420Z,96551.38
2023-06-07T14:33:26.107Z,96552.56
2023-06-07T14:35:52.932Z,96545.69
2023-06-07T14:38:19.582Z,96544.66
2023-06-07T14:40:46.285Z,96541.81
2023-06-07T14:43:15.322Z,96541.78
2023-06-07T14:45:42.088Z,96544.16
2023-06-07T14:48:08.897Z,96542.81
2023-06-07T14:50:35.788Z,96539.81
2023-06-07T14:53:02.580Z,96547.66
2023-06-07T14:55:29.242Z,96545.56
2023-06-07T14:57:55.959Z,96550.78
2023-06-07T15:00:22.676Z,96545.38
2023-06-07T15:02:49.384Z,96554.34
2023-06-07T15:05:16.126Z,96549.44
2023-06-07T15:07:42.996Z,96545.59
2023-06-07T15:10:09.956Z,96538.16
2023-06-07T15:12:36.607Z,96547.47
2023-06-07T15:15:03.618Z,96548.00
2023-06-07T15:17:30.328Z,96542.09
2023-06-07T15:19:57.052Z,96540.44
2023-06-07T15:22:23.747Z,96536.94
2023-06-07T15:24:50.529Z,96542.22
2023-06-07T15:27:17.216Z,96532.75
2023-06-07T15:29:44.905Z,96533.06
2023-06-07T15:32:13.099Z,96537.72
2023-06-07T15:34:44.682Z,96533.31
2023-06-07T15:37:11.818Z,96531.47
2023-06-07T15:39:38.644Z,96532.72
2023-06-07T15:42:05.611Z,96522.53
2023-06-07T15:44:32.371Z,96527.06
2023-06-07T15:46:59.493Z,96524.66
2023-06-07T15:49:27.694Z,96517.53
2023-06-07T15:51:54.947Z,96522.78
2023-06-07T15:54:21.917Z,96514.78
2023-06-07T15:56:48.660Z,96509.53
2023-06-07T15:59:16.511Z,96509.94
2023-06-07T16:01:44.369Z,96507.09
2023-06-07T16:04:11.313Z,96502.19
2023-06-07T16:06:38.063Z,96498.56
2023-06-07T16:09:04.799Z,96498.53
2023-06-07T16:11:31.479Z,96503.19
2023-06-07T16:13:58.139Z,96501.94
2023-06-07T16:16:24.966Z,96500.66
2023-06-07T16:18:53.198Z,96503.41
2023-06-07T16:21:20.254Z,96503.56
2023-06-07T16:23:48.628Z,96502.22
2023-06-07T16:26:16.846Z,96501.31
2023-06-07T16:28:47.926Z,96503.16
2023-06-07T16:31:14.870Z,96497.88
2023-06-07T16:33:41.722Z,96497.00
2023-06-07T16:36:08.780Z,96501.75
2023-06-07T16:38:35.954Z,96496.53
2023-06-07T16:41:02.714Z,96501.06
2023-06-07T16:43:30.806Z,96503.53
2023-06-07T16:45:57.681Z,96503.25
2023-06-07T16:48:24.730Z,96492.84
2023-06-07T16:50:51.521Z,96497.22
2023-06-07T16:53:18.285Z,96496.03
2023-06-07T16:55:45.050Z,96502.69
2023-06-07T16:58:11.820Z,96501.13
2023-06-07T17:00:38.523Z,96491.88
2023-06-07T17:03:05.747Z,96501.16
2023-06-07T17:05:33.780Z,96498.47
2023-06-07T17:08:00.560Z,96474.06
2023-06-07T17:10:29.705Z,96489.09
2023-06-07T17:12:56.490Z,96489.97
2023-06-07T17:15:23.184Z,96494.25
2023-06-07T17:17:50.031Z,96488.09
2023-06-07T17:20:16.809Z,96493.34
2023-06-07T17:22:43.959Z,96501.25
2023-06-07T17:25:10.832Z,96496.97
2023-06-07T17:27:37.646Z,96504.25
2023-06-07T17:30:05.076Z,96502.06
2023-06-07T17:32:32.053Z,96496.56
2023-06-07T17:34:58.786Z,96491.56
2023-06-07T17:37:25.530Z,96497.75
2023-06-07T17:39:52.766Z,96495.66
2023-06-07T17:42:19.558Z,96496.34
2023-06-07T17:44:46.324Z,96497.31
2023-06-07T17:47:15.115Z,96493.44
2023-06-07T17:49:43.549Z,96495.56
2023-06-07T17:52:21.716Z,96493.13
2023-06-07T17:54:50.469Z,96492.63
2023-06-07T17:57:17.128Z,96489.31
2023-06-07T17:59:43.812Z,96497.97
2023-06-07T18:02:10.514Z,96502.13
2023-06-07T18:04:37.907Z,96497.00
2023-06-07T18:07:05.414Z,96500.84
2023-06-07T18:09:32.193Z,96495.06
2023-06-07T18:11:58.882Z,96504.13
2023-06-07T18:14:25.769Z,96498.72
2023-06-07T18:16:52.684Z,96501.75
2023-06-07T18:19:19.344Z,96513.22
2023-06-07T18:21:46.219Z,96509.97
2023-06-07T18:24:12.916Z,96512.72
2023-06-07T18:26:39.802Z,96510.06
2023-06-07T18:29:06.442Z,96513.91
2023-06-07T18:31:33.166Z,96516.19
2023-06-07T18:33:59.816Z,96527.84
2023-06-07T18:36:26.574Z,96516.44
2023-06-07T18:38:53.349Z,96523.69
2023-06-07T18:41:20.155Z,96519.69
2023-06-07T18:43:46.860Z,96523.78
2023-06-07T18:46:13.809Z,96523.53
2023-06-07T18:48:40.902Z,96518.69
2023-06-07T18:51:07.583Z,96524.50
2023-06-07T18:53:34.291Z,96527.59
2023-06-07T18:56:00.987Z,96522.88
2023-06-07T18:58:27.709Z,96523.56
2023-06-07T19:00:54.732Z,96517.72
2023-06-07T19:03:21.549Z,96521.56
2023-06-07T19:05:48.381Z,96527.31
2023-06-07T19:08:15.248Z,96526.34
2023-06-07T19:10:42.123Z,96517.81
2023-06-07T19:13:09.353Z,96526.72
2023-06-07T19:15:36.072Z,96520.44
2023-06-07T19:18:02.804Z,96523.81
2023-06-07T19:20:29.645Z,96522.53
2023-06-07T19:22:56.382Z,96533.63
2023-06-07T19:25:23.128Z,96532.19
2023-06-07T19:27:49.868Z,96529.78
2023-06-07T19:30:17.061Z,96536.25
2023-06-07T19:32:43.979Z,96538.69
2023-06-07T19:35:10.680Z,96547.69
2023-06-07T19:37:37.459Z,96543.00
2023-06-07T19:40:06.949Z,96550.06
2023-06-07T19:42:33.746Z,96553.91
2023-06-07T19:45:00.392Z,96547.94
2023-06-07T19:47:27.151Z,96558.91
2023-06-07T19:49:53.836Z,96561.38
2023-06-07T19:52:20.546Z,96563.22
2023-06-07T19:54:47.287Z,96575.25
2023-06-07T19:57:14.131Z,96573.66
2023-06-07T19:59:41.212Z,96582.13
2023-06-07T20:02:08.018Z,96593.22
2023-06-07T20:04:35.743Z,96593.31
2023-06-07T20:07:03.298Z,96589.56
2023-06-07T20:09:34.243Z,96587.94
2023-06-07T20:12:01.035Z,96601.91
2023-06-07T20:14:27.713Z,96605.47
2023-06-07T20:16:54.529Z,96604.50
2023-06-07T20:19:21.367Z,96603.16
2023-06-07T20:21:48.148Z,96605.31
2023-06-07T20:24:14.936Z,96606.56
2023-06-07T20:26:43.316Z,96602.91
2023-06-07T20:29:10.109Z,96610.41
2023-06-07T20:31:36.849Z,96611.50
2023-06-07T20:34:03.587Z,96611.63
2023-06-07T20:36:30.298Z,96616.19
2023-06-07T20:38:57.028Z,96608.16
2023-06-07T20:41:23.783Z,96619.50
2023-06-07T20:43:50.814Z,96617.09
2023-06-07T20:46:17.483Z,96617.19
2023-06-07T20:48:44.226Z,96618.28
2023-06-07T20:51:10.932Z,96615.63
2023-06-07T20:53:38.896Z,96618.28
2023-06-07T20:56:05.666Z,96622.25
2023-06-07T20:58:32.469Z,96618.00
2023-06-07T21:00:59.142Z,96621.78
2023-06-07T21:03:26.045Z,96618.53
2023-06-07T21:05:54.338Z,96618.00
2023-06-07T21:08:21.028Z,96625.53
2023-06-07T21:10:47.739Z,96616.78
2023-06-07T21:13:14.523Z,96611.50
2023-06-07T21:15:41.177Z,96611.28
2023-06-07T21:18:07.841Z,96617.25
2023-06-07T21:20:34.702Z,96620.22
2023-06-07T21:23:01.486Z,96619.56
2023-06-07T21:25:28.148Z,96617.16
2023-06-07T21:27:55.838Z,96618.75
2023-06-07T21:30:22.598Z,96612.97
2023-06-07T21:32:49.435Z,96610.50
2023-06-07T21:35:16.192Z,96611.03
2023-06-07T21:37:43.088Z,96616.13
2023-06-07T21:40:10.244Z,96615.69
2023-06-07T21:42:36.887Z,96617.25
2023-06-07T21:45:04.770Z,96619.50
2023-06-07T21:47:31.550Z,96618.38
2023-06-07T21:49:58.313Z,96616.44
2023-06-07T21:52:25.129Z,96619.78
2023-06-07T21:54:51.854Z,96612.47
2023-06-07T21:57:18.547Z,96611.94
2023-06-07T21:59:45.313Z,96621.00
2023-06-07T22:02:12.058Z,96626.25
2023-06-07T22:04:38.834Z,96617.53
2023-06-07T22:07:05.704Z,96618.66
2023-06-07T22:09:32.456Z,96620.19
2023-06-07T22:11:59.289Z,96627.31
2023-06-07T22:14:26.070Z,96624.63
2023-06-07T22:16:52.834Z,96627.97
2023-06-07T22:19:19.515Z,96624.19
2023-06-07T22:21:46.806Z,96632.69
2023-06-07T22:24:13.695Z,96630.03
2023-06-07T22:26:40.536Z,96624.66
2023-06-07T22:29:07.657Z,96627.16
2023-06-07T22:31:34.409Z,96630.75
2023-06-07T22:34:06.863Z,96635.47
2023-06-07T22:36:36.401Z,96629.50
2023-06-07T22:39:03.131Z,96624.09
2023-06-07T22:41:29.833Z,96632.91
2023-06-07T22:43:56.683Z,96628.59
2023-06-07T22:46:23.748Z,96630.00
2023-06-07T22:48:50.521Z,96632.22
2023-06-07T22:51:17.361Z,96633.59
2023-06-07T22:53:44.717Z,96635.81
2023-06-07T22:56:11.473Z,96640.53
2023-06-07T22:58:38.583Z,96643.59
2023-06-07T23:01:05.322Z,96649.03
2023-06-07T23:03:32.433Z,96654.50
2023-06-07T23:06:00.750Z,96663.56
2023-06-07T23:08:27.874Z,96666.56
2023-06-07T23:10:55.075Z,96661.66
2023-06-07T23:13:22.212Z,96654.91
2023-06-07T23:15:51.643Z,96656.59
2023-06-07T23:18:18.413Z,96658.22
2023-06-07T23:20:45.583Z,96669.97
2023-06-07T23:25:41.882Z,96679.84
2023-06-07T23:28:08.667Z,96684.78
2023-06-07T23:30:37.657Z,96679.94
2023-06-07T23:33:05.762Z,96682.94
2023-06-07T23:35:32.460Z,96678.72
2023-06-07T23:37:59.174Z,96680.41
2023-06-07T23:40:25.853Z,96675.03
2023-06-07T23:42:52.539Z,96682.97
2023-06-07T23:45:19.868Z,96695.19
2023-06-07T23:47:46.800Z,96684.00
2023-06-07T23:50:13.651Z,96670.97
2023-06-07T23:52:40.839Z,96674.53
2023-06-07T23:55:08.015Z,96675.09
2023-06-07T23:57:34.754Z,96680.59
